sensor_id;sensor_type;location;lat;lon;timestamp;pressure;altitude;pressure_sealevel;temperature;humidity
11413;BME280;5762;43.256;26.960;2024-03-02T00:01:51;101248.14;;;8.33;100.00
11413;BME280;5762;43.256;26.960;2024-03-02T00:04:19;101255.73;;;8.36;100.00
11413;BME280;5762;43.256;26.960;2024-03-02T00:06:48;101256.31;;;8.38;100.00
11413;BME280;5762;43.256;26.960;2024-03-02T00:09:17;101259.09;;;8.43;100.00
11413;BME280;5762;43.256;26.960;2024-03-02T00:11:47;101264.98;;;8.40;100.00
11413;BME280;5762;43.256;26.960;2024-03-02T00:14:15;101250.80;;;8.30;100.00
11413;BME280;5762;43.256;26.960;2024-03-02T00:16:45;101240.45;;;8.25;100.00
11413;BME280;5762;43.256;26.960;2024-03-02T00:19:13;101237.51;;;8.26;100.00
11413;BME280;5762;43.256;26.960;2024-03-02T00:21:41;101233.09;;;8.20;100.00
11413;BME280;5762;43.256;26.960;2024-03-02T00:24:17;101229.00;;;8.18;100.00
11413;BME280;5762;43.256;26.960;2024-03-02T00:26:39;101229.00;;;8.18;100.00
11413;BME280;5762;43.256;26.960;2024-03-02T00:29:07;101230.92;;;8.20;100.00
11413;BME280;5762;43.256;26.960;2024-03-02T00:31:35;101220.38;;;8.18;100.00
11413;BME280;5762;43.256;26.960;2024-03-02T00:34:03;101217.89;;;8.14;100.00
11413;BME280;5762;43.256;26.960;2024-03-02T00:36:33;101231.09;;;8.30;100.00
11413;BME280;5762;43.256;26.960;2024-03-02T00:39:01;101223.28;;;8.31;100.00
11413;BME280;5762;43.256;26.960;2024-03-02T00:41:31;101208.62;;;8.24;100.00
11413;BME280;5762;43.256;26.960;2024-03-02T00:46:31;101230.35;;;8.18;100.00
11413;BME280;5762;43.256;26.960;2024-03-02T00:49:00;101275.56;;;8.27;100.00
11413;BME280;5762;43.256;26.960;2024-03-02T00:51:32;101276.38;;;8.28;100.00
11413;BME280;5762;43.256;26.960;2024-03-02T00:54:04;101271.06;;;8.33;100.00
11413;BME280;5762;43.256;26.960;2024-03-02T00:56:31;101246.83;;;8.35;100.00
11413;BME280;5762;43.256;26.960;2024-03-02T00:59:00;101244.22;;;8.40;100.00
11413;BME280;5762;43.256;26.960;2024-03-02T01:01:29;101237.02;;;8.46;100.00
11413;BME280;5762;43.256;26.960;2024-03-02T01:03:57;101211.52;;;8.37;100.00
11413;BME280;5762;43.256;26.960;2024-03-02T01:06:25;101200.80;;;8.42;100.00
11413;BME280;5762;43.256;26.960;2024-03-02T01:08:53;101187.88;;;8.44;100.00
11413;BME280;5762;43.256;26.960;2024-03-02T01:11:21;101170.94;;;8.29;100.00
11413;BME280;5762;43.256;26.960;2024-03-02T01:13:50;101157.45;;;8.32;100.00
11413;BME280;5762;43.256;26.960;2024-03-02T01:16:18;101157.20;;;8.31;100.00
11413;BME280;5762;43.256;26.960;2024-03-02T01:18:46;101164.72;;;8.29;100.00
11413;BME280;5762;43.256;26.960;2024-03-02T01:21:14;101175.13;;;8.39;100.00
11413;BME280;5762;43.256;26.960;2024-03-02T01:23:43;101187.31;;;8.42;100.00
11413;BME280;5762;43.256;26.960;2024-03-02T01:26:11;101188.05;;;8.37;100.00
11413;BME280;5762;43.256;26.960;2024-03-02T01:28:39;101177.58;;;8.41;100.00
11413;BME280;5762;43.256;26.960;2024-03-02T01:31:07;101174.06;;;8.40;100.00
11413;BME280;5762;43.256;26.960;2024-03-02T01:33:36;101169.17;;;8.37;100.00
11413;BME280;5762;43.256;26.960;2024-03-02T01:36:04;101175.09;;;8.37;100.00
11413;BME280;5762;43.256;26.960;2024-03-02T01:38:32;101180.00;;;8.40;100.00
11413;BME280;5762;43.256;26.960;2024-03-02T01:41:00;101171.62;;;8.39;100.00
11413;BME280;5762;43.256;26.960;2024-03-02T01:43:29;101173.29;;;8.43;100.00
11413;BME280;5762;43.256;26.960;2024-03-02T01:45:57;101153.19;;;8.33;100.00
11413;BME280;5762;43.256;26.960;2024-03-02T01:48:25;101160.30;;;8.39;100.00
11413;BME280;5762;43.256;26.960;2024-03-02T01:50:53;101161.93;;;8.40;100.00
11413;BME280;5762;43.256;26.960;2024-03-02T01:53:22;101149.14;;;8.33;100.00
11413;BME280;5762;43.256;26.960;2024-03-02T01:55:51;101149.18;;;8.36;100.00
11413;BME280;5762;43.256;26.960;2024-03-02T01:58:19;101143.58;;;8.40;100.00
11413;BME280;5762;43.256;26.960;2024-03-02T02:00:47;101135.05;;;8.29;100.00
11413;BME280;5762;43.256;26.960;2024-03-02T02:03:15;101136.47;;;8.34;100.00
11413;BME280;5762;43.256;26.960;2024-03-02T02:05:43;101138.07;;;8.32;100.00
11413;BME280;5762;43.256;26.960;2024-03-02T02:08:11;101138.57;;;8.32;100.00
11413;BME280;5762;43.256;26.960;2024-03-02T02:10:39;101144.07;;;8.37;100.00
11413;BME280;5762;43.256;26.960;2024-03-02T02:13:07;101144.36;;;8.38;100.00
11413;BME280;5762;43.256;26.960;2024-03-02T02:15:36;101137.01;;;8.33;100.00
11413;BME280;5762;43.256;26.960;2024-03-02T02:18:04;101141.63;;;8.35;100.00
11413;BME280;5762;43.256;26.960;2024-03-02T02:20:32;101144.36;;;8.38;100.00
11413;BME280;5762;43.256;26.960;2024-03-02T02:23:00;101144.64;;;8.39;100.00
11413;BME280;5762;43.256;26.960;2024-03-02T02:25:29;101135.20;;;8.39;100.00
11413;BME280;5762;43.256;26.960;2024-03-02T02:27:57;101140.62;;;8.42;100.00
11413;BME280;5762;43.256;26.960;2024-03-02T02:30:29;101130.38;;;8.41;100.00
11413;BME280;5762;43.256;26.960;2024-03-02T02:32:58;101139.39;;;8.49;100.00
11413;BME280;5762;43.256;26.960;2024-03-02T02:35:27;101113.37;;;8.40;100.00
11413;BME280;5762;43.256;26.960;2024-03-02T02:37:55;101105.56;;;8.42;100.00
11413;BME280;5762;43.256;26.960;2024-03-02T02:40:25;101109.89;;;8.43;100.00
11413;BME280;5762;43.256;26.960;2024-03-02T02:42:54;101105.56;;;8.42;100.00
11413;BME280;5762;43.256;26.960;2024-03-02T02:45:22;101084.83;;;8.25;100.00
11413;BME280;5762;43.256;26.960;2024-03-02T02:47:51;101079.97;;;8.25;100.00
11413;BME280;5762;43.256;26.960;2024-03-02T02:50:19;101075.56;;;8.19;100.00
11413;BME280;5762;43.256;26.960;2024-03-02T02:52:48;101076.56;;;8.13;100.00
11413;BME280;5762;43.256;26.960;2024-03-02T02:55:16;101076.03;;;8.13;100.00
11413;BME280;5762;43.256;26.960;2024-03-02T02:57:44;101070.31;;;8.10;100.00
11413;BME280;5762;43.256;26.960;2024-03-02T03:00:13;101082.09;;;8.03;100.00
11413;BME280;5762;43.256;26.960;2024-03-02T03:02:43;101098.63;;;8.10;100.00
11413;BME280;5762;43.256;26.960;2024-03-02T03:05:11;101109.87;;;8.04;100.00
11413;BME280;5762;43.256;26.960;2024-03-02T03:07:41;101111.58;;;8.10;100.00
11413;BME280;5762;43.256;26.960;2024-03-02T03:10:09;101109.62;;;8.05;100.00
11413;BME280;5762;43.256;26.960;2024-03-02T03:12:37;101104.11;;;7.98;100.00
11413;BME280;5762;43.256;26.960;2024-03-02T03:15:06;101104.87;;;7.93;100.00
11413;BME280;5762;43.256;26.960;2024-03-02T03:17:35;101107.09;;;7.96;100.00
11413;BME280;5762;43.256;26.960;2024-03-02T03:20:04;101121.11;;;7.98;100.00
11413;BME280;5762;43.256;26.960;2024-03-02T03:22:34;101121.91;;;7.96;100.00
11413;BME280;5762;43.256;26.960;2024-03-02T03:25:02;101138.70;;;8.03;100.00
11413;BME280;5762;43.256;26.960;2024-03-02T03:27:30;101138.42;;;8.02;100.00
11413;BME280;5762;43.256;26.960;2024-03-02T03:29:59;101130.41;;;8.07;100.00
11413;BME280;5762;43.256;26.960;2024-03-02T03:32:27;101116.28;;;8.00;100.00
11413;BME280;5762;43.256;26.960;2024-03-02T03:34:55;101119.06;;;8.05;100.00
11413;BME280;5762;43.256;26.960;2024-03-02T03:37:23;101109.55;;;8.00;100.00
11413;BME280;5762;43.256;26.960;2024-03-02T03:39:52;101103.25;;;7.92;100.00
11413;BME280;5762;43.256;26.960;2024-03-02T03:42:20;101120.03;;;7.97;100.00
11413;BME280;5762;43.256;26.960;2024-03-02T03:44:51;101132.54;;;8.05;100.00
11413;BME280;5762;43.256;26.960;2024-03-02T03:47:19;101131.77;;;8.07;100.00
11413;BME280;5762;43.256;26.960;2024-03-02T03:49:47;101134.13;;;8.04;100.00
11413;BME280;5762;43.256;26.960;2024-03-02T03:52:15;101138.22;;;8.06;100.00
11413;BME280;5762;43.256;26.960;2024-03-02T03:54:43;101128.28;;;8.10;100.00
11413;BME280;5762;43.256;26.960;2024-03-02T03:57:11;101123.39;;;8.06;100.00
11413;BME280;5762;43.256;26.960;2024-03-02T03:59:40;101128.44;;;8.20;100.00
11413;BME280;5762;43.256;26.960;2024-03-02T04:02:08;101123.05;;;8.20;100.00
11413;BME280;5762;43.256;26.960;2024-03-02T04:04:36;101106.83;;;8.17;100.00
11413;BME280;5762;43.256;26.960;2024-03-02T04:07:04;101098.73;;;8.17;100.00
11413;BME280;5762;43.256;26.960;2024-03-02T04:09:32;101086.64;;;8.20;100.00
11413;BME280;5762;43.256;26.960;2024-03-02T04:12:01;101070.64;;;8.13;100.00
11413;BME280;5762;43.256;26.960;2024-03-02T04:14:29;101070.46;;;8.20;100.00
11413;BME280;5762;43.256;26.960;2024-03-02T04:16:57;101065.34;;;8.21;100.00
11413;BME280;5762;43.256;26.960;2024-03-02T04:19:25;101046.40;;;8.16;100.00
11413;BME280;5762;43.256;26.960;2024-03-02T04:21:53;101049.91;;;8.16;100.00
11413;BME280;5762;43.256;26.960;2024-03-02T04:24:22;101046.50;;;8.23;100.00
11413;BME280;5762;43.256;26.960;2024-03-02T04:26:50;101039.73;;;8.21;100.00
11413;BME280;5762;43.256;26.960;2024-03-02T04:29:18;101030.58;;;8.22;100.00
11413;BME280;5762;43.256;26.960;2024-03-02T04:31:46;101033.09;;;8.28;100.00
11413;BME280;5762;43.256;26.960;2024-03-02T04:34:14;101010.91;;;8.24;100.00
11413;BME280;5762;43.256;26.960;2024-03-02T04:36:42;101007.75;;;8.29;100.00
11413;BME280;5762;43.256;26.960;2024-03-02T04:39:10;100995.55;;;8.24;100.00
11413;BME280;5762;43.256;26.960;2024-03-02T04:41:39;100989.30;;;8.21;100.00
11413;BME280;5762;43.256;26.960;2024-03-02T04:44:07;100979.08;;;8.23;100.00
11413;BME280;5762;43.256;26.960;2024-03-02T04:46:35;100980.18;;;8.25;100.00
11413;BME280;5762;43.256;26.960;2024-03-02T04:49:03;100975.85;;;8.24;100.00
11413;BME280;5762;43.256;26.960;2024-03-02T04:51:31;100979.73;;;8.33;100.00
11413;BME280;5762;43.256;26.960;2024-03-02T04:53:59;100959.67;;;8.24;100.00
11413;BME280;5762;43.256;26.960;2024-03-02T04:56:28;100955.91;;;8.25;100.00
11413;BME280;5762;43.256;26.960;2024-03-02T04:58:59;100947.56;;;8.26;100.00
11413;BME280;5762;43.256;26.960;2024-03-02T05:01:27;100949.45;;;8.26;100.00
11413;BME280;5762;43.256;26.960;2024-03-02T05:03:55;100931.33;;;8.21;100.00
11413;BME280;5762;43.256;26.960;2024-03-02T05:06:23;100928.13;;;8.24;100.00
11413;BME280;5762;43.256;26.960;2024-03-02T05:08:52;100924.58;;;8.21;100.00
11413;BME280;5762;43.256;26.960;2024-03-02T05:11:20;100907.36;;;8.25;100.00
11413;BME280;5762;43.256;26.960;2024-03-02T05:14:07;100896.58;;;8.25;100.00
11413;BME280;5762;43.256;26.960;2024-03-02T05:16:35;100880.05;;;8.19;100.00
11413;BME280;5762;43.256;26.960;2024-03-02T05:19:03;100869.02;;;8.20;100.00
11413;BME280;5762;43.256;26.960;2024-03-02T05:21:32;100868.79;;;8.24;100.00
11413;BME280;5762;43.256;26.960;2024-03-02T05:24:01;100856.06;;;8.20;100.00
11413;BME280;5762;43.256;26.960;2024-03-02T05:26:29;100852.86;;;8.23;100.00
11413;BME280;5762;43.256;26.960;2024-03-02T05:28:57;100861.00;;;8.28;100.00
11413;BME280;5762;43.256;26.960;2024-03-02T05:31:25;100857.41;;;8.20;100.00
11413;BME280;5762;43.256;26.960;2024-03-02T05:33:54;100851.48;;;8.20;100.00
11413;BME280;5762;43.256;26.960;2024-03-02T05:36:22;100860.84;;;8.13;100.00
11413;BME280;5762;43.256;26.960;2024-03-02T05:38:50;100872.22;;;8.17;100.00
11413;BME280;5762;43.256;26.960;2024-03-02T05:41:18;100868.73;;;8.19;100.00
11413;BME280;5762;43.256;26.960;2024-03-02T05:43:46;100875.56;;;8.27;100.00
11413;BME280;5762;43.256;26.960;2024-03-02T05:46:14;100872.02;;;8.24;100.00
11413;BME280;5762;43.256;26.960;2024-03-02T05:48:43;100871.52;;;8.27;100.00
11413;BME280;5762;43.256;26.960;2024-03-02T05:51:11;100863.87;;;8.19;100.00
11413;BME280;5762;43.256;26.960;2024-03-02T05:53:39;100862.47;;;8.14;100.00
11413;BME280;5762;43.256;26.960;2024-03-02T05:56:07;100862.70;;;8.10;100.00
11413;BME280;5762;43.256;26.960;2024-03-02T05:58:35;100866.52;;;8.14;100.00
11413;BME280;5762;43.256;26.960;2024-03-02T06:01:15;100874.05;;;8.12;100.00
11413;BME280;5762;43.256;26.960;2024-03-02T06:03:44;100868.63;;;8.09;100.00
11413;BME280;5762;43.256;26.960;2024-03-02T06:06:12;100878.12;;;8.14;100.00
11413;BME280;5762;43.256;26.960;2024-03-02T06:08:40;100873.88;;;8.21;100.00
11413;BME280;5762;43.256;26.960;2024-03-02T06:11:08;100867.13;;;8.21;100.00
11413;BME280;5762;43.256;26.960;2024-03-02T06:13:37;100867.61;;;8.15;100.00
11413;BME280;5762;43.256;26.960;2024-03-02T06:16:05;100865.95;;;8.12;100.00
11413;BME280;5762;43.256;26.960;2024-03-02T06:18:33;100866.91;;;8.25;100.00
11413;BME280;5762;43.256;26.960;2024-03-02T06:21:01;100868.79;;;8.24;100.00
11413;BME280;5762;43.256;26.960;2024-03-02T06:23:30;100856.67;;;8.27;100.00
11413;BME280;5762;43.256;26.960;2024-03-02T06:25:58;100847.97;;;8.20;100.00
11413;BME280;5762;43.256;26.960;2024-03-02T06:28:26;100846.17;;;8.28;100.00
11413;BME280;5762;43.256;26.960;2024-03-02T06:30:54;100842.41;;;8.29;100.00
11413;BME280;5762;43.256;26.960;2024-03-02T06:33:23;100831.03;;;8.24;100.00
11413;BME280;5762;43.256;26.960;2024-03-02T06:35:51;100822.36;;;8.20;100.00
11413;BME280;5762;43.256;26.960;2024-03-02T06:38:19;100825.89;;;8.23;100.00
11413;BME280;5762;43.256;26.960;2024-03-02T06:40:47;100823.48;;;8.24;100.00
11413;BME280;5762;43.256;26.960;2024-03-02T06:43:15;100814.85;;;8.24;100.00
11413;BME280;5762;43.256;26.960;2024-03-02T06:45:43;100825.17;;;8.32;100.00
11413;BME280;5762;43.256;26.960;2024-03-02T06:48:14;100817.64;;;8.34;100.00
11413;BME280;5762;43.256;26.960;2024-03-02T06:50:42;100813.86;;;8.33;100.00
11413;BME280;5762;43.256;26.960;2024-03-02T06:53:10;100807.18;;;8.40;100.00
11413;BME280;5762;43.256;26.960;2024-03-02T06:55:38;100791.48;;;8.35;100.00
11413;BME280;5762;43.256;26.960;2024-03-02T06:58:07;100782.60;;;8.37;100.00
11413;BME280;5762;43.256;26.960;2024-03-02T07:00:35;100784.27;;;8.43;100.00
11413;BME280;5762;43.256;26.960;2024-03-02T07:03:03;100782.13;;;8.45;100.00
11413;BME280;5762;43.256;26.960;2024-03-02T07:05:31;100770.23;;;8.41;100.00
11413;BME280;5762;43.256;26.960;2024-03-02T07:08:00;100775.78;;;8.61;100.00
11413;BME280;5762;43.256;26.960;2024-03-02T07:10:28;100754.64;;;8.48;100.00
11413;BME280;5762;43.256;26.960;2024-03-02T07:12:56;100737.88;;;8.44;100.00
11413;BME280;5762;43.256;26.960;2024-03-02T07:15:24;100738.80;;;8.59;100.00
11413;BME280;5762;43.256;26.960;2024-03-02T07:17:55;100720.95;;;8.53;100.00
11413;BME280;5762;43.256;26.960;2024-03-02T07:20:24;100710.44;;;8.54;100.00
11413;BME280;5762;43.256;26.960;2024-03-02T07:22:52;100712.39;;;8.69;100.00
11413;BME280;5762;43.256;26.960;2024-03-02T07:25:20;100709.22;;;8.80;100.00
11413;BME280;5762;43.256;26.960;2024-03-02T07:27:48;100683.00;;;8.72;100.00
11413;BME280;5762;43.256;26.960;2024-03-02T07:30:16;100675.54;;;8.92;100.00
11413;BME280;5762;43.256;26.960;2024-03-02T07:32:44;100656.11;;;9.03;100.00
11413;BME280;5762;43.256;26.960;2024-03-02T07:35:12;100629.94;;;9.06;100.00
11413;BME280;5762;43.256;26.960;2024-03-02T07:37:44;100616.17;;;9.07;100.00
11413;BME280;5762;43.256;26.960;2024-03-02T07:40:13;100588.90;;;9.09;100.00
11413;BME280;5762;43.256;26.960;2024-03-02T07:42:41;100564.33;;;9.11;100.00
11413;BME280;5762;43.256;26.960;2024-03-02T07:45:09;100552.17;;;9.11;100.00
11413;BME280;5762;43.256;26.960;2024-03-02T07:47:37;100546.80;;;9.21;100.00
11413;BME280;5762;43.256;26.960;2024-03-02T07:50:05;100538.42;;;9.20;100.00
11413;BME280;5762;43.256;26.960;2024-03-02T07:52:34;100518.16;;;9.12;100.00
11413;BME280;5762;43.256;26.960;2024-03-02T07:55:02;100515.19;;;9.16;100.00
11413;BME280;5762;43.256;26.960;2024-03-02T07:57:30;100497.91;;;8.99;100.00
11413;BME280;5762;43.256;26.960;2024-03-02T07:59:58;100501.14;;;9.14;100.00
11413;BME280;5762;43.256;26.960;2024-03-02T08:02:26;100509.25;;;9.24;100.00
11413;BME280;5762;43.256;26.960;2024-03-02T08:04:57;100495.18;;;9.37;100.00
11413;BME280;5762;43.256;26.960;2024-03-02T08:07:25;100482.21;;;9.45;100.00
11413;BME280;5762;43.256;26.960;2024-03-02T08:09:53;100466.00;;;9.37;100.00
11413;BME280;5762;43.256;26.960;2024-03-02T08:12:21;100450.06;;;9.43;100.00
11413;BME280;5762;43.256;26.960;2024-03-02T08:14:50;100439.52;;;9.47;100.00
11413;BME280;5762;43.256;26.960;2024-03-02T08:17:18;100426.55;;;9.51;100.00
11413;BME280;5762;43.256;26.960;2024-03-02T08:19:46;100418.42;;;9.61;100.00
11413;BME280;5762;43.256;26.960;2024-03-02T08:22:14;100410.56;;;9.67;100.00
11413;BME280;5762;43.256;26.960;2024-03-02T08:24:43;100406.73;;;9.76;100.00
11413;BME280;5762;43.256;26.960;2024-03-02T08:27:11;100399.48;;;9.69;100.00
11413;BME280;5762;43.256;26.960;2024-03-02T08:29:40;100400.48;;;9.83;100.00
11413;BME280;5762;43.256;26.960;2024-03-02T08:32:08;100391.53;;;9.90;100.00
11413;BME280;5762;43.256;26.960;2024-03-02T08:34:36;100386.42;;;9.84;100.00
11413;BME280;5762;43.256;26.960;2024-03-02T08:37:04;100391.52;;;9.95;100.00
11413;BME280;5762;43.256;26.960;2024-03-02T08:39:33;100383.12;;;9.99;100.00
11413;BME280;5762;43.256;26.960;2024-03-02T08:42:01;100374.50;;;9.92;100.00
11413;BME280;5762;43.256;26.960;2024-03-02T08:44:29;100371.42;;;10.06;100.00
11413;BME280;5762;43.256;26.960;2024-03-02T08:46:58;100372.02;;;10.01;100.00
11413;BME280;5762;43.256;26.960;2024-03-02T08:49:26;100379.52;;;10.12;100.00
11413;BME280;5762;43.256;26.960;2024-03-02T08:51:54;100378.12;;;10.24;100.00
11413;BME280;5762;43.256;26.960;2024-03-02T08:54:22;100372.73;;;10.17;100.00
11413;BME280;5762;43.256;26.960;2024-03-02T08:56:51;100370.20;;;10.38;100.00
11413;BME280;5762;43.256;26.960;2024-03-02T08:59:19;100369.25;;;10.55;100.00
11413;BME280;5762;43.256;26.960;2024-03-02T09:01:47;100353.52;;;10.60;100.00
11413;BME280;5762;43.256;26.960;2024-03-02T09:04:15;100346.20;;;10.60;100.00
11413;BME280;5762;43.256;26.960;2024-03-02T09:06:43;100330.30;;;10.51;100.00
11413;BME280;5762;43.256;26.960;2024-03-02T09:09:11;100324.04;;;10.56;100.00
11413;BME280;5762;43.256;26.960;2024-03-02T09:11:40;100328.79;;;10.71;100.00
11413;BME280;5762;43.256;26.960;2024-03-02T09:14:08;100310.16;;;10.65;100.00
11413;BME280;5762;43.256;26.960;2024-03-02T09:16:36;100303.48;;;10.55;100.00
11413;BME280;5762;43.256;26.960;2024-03-02T09:19:05;100306.37;;;10.66;100.00
11413;BME280;5762;43.256;26.960;2024-03-02T09:21:33;100300.10;;;10.70;100.00
11413;BME280;5762;43.256;26.960;2024-03-02T09:24:01;100298.32;;;10.85;100.00
11413;BME280;5762;43.256;26.960;2024-03-02T09:26:30;100291.22;;;10.91;100.00
11413;BME280;5762;43.256;26.960;2024-03-02T09:28:58;100285.16;;;11.02;100.00
11413;BME280;5762;43.256;26.960;2024-03-02T09:31:26;100274.45;;;11.13;100.00
11413;BME280;5762;43.256;26.960;2024-03-02T09:33:54;100274.32;;;11.02;100.00
11413;BME280;5762;43.256;26.960;2024-03-02T09:36:22;100268.71;;;11.17;100.00
11413;BME280;5762;43.256;26.960;2024-03-02T09:38:51;100256.11;;;11.29;100.00
11413;BME280;5762;43.256;26.960;2024-03-02T09:41:19;100248.19;;;11.35;100.00
11413;BME280;5762;43.256;26.960;2024-03-02T09:43:47;100241.44;;;11.32;100.00
11413;BME280;5762;43.256;26.960;2024-03-02T09:46:15;100251.55;;;11.46;100.00
11413;BME280;5762;43.256;26.960;2024-03-02T09:48:44;100242.45;;;11.58;100.00
11413;BME280;5762;43.256;26.960;2024-03-02T09:51:12;100227.57;;;11.55;100.00
11413;BME280;5762;43.256;26.960;2024-03-02T09:53:42;100232.64;;;11.81;100.00
11413;BME280;5762;43.256;26.960;2024-03-02T09:56:11;100216.98;;;11.78;100.00
11413;BME280;5762;43.256;26.960;2024-03-02T09:58:40;100222.19;;;12.09;100.00
11413;BME280;5762;43.256;26.960;2024-03-02T10:01:08;100214.16;;;12.34;100.00
11413;BME280;5762;43.256;26.960;2024-03-02T10:03:39;100191.80;;;12.39;100.00
11413;BME280;5762;43.256;26.960;2024-03-02T10:06:21;100176.07;;;12.53;100.00
11413;BME280;5762;43.256;26.960;2024-03-02T10:08:46;100167.39;;;12.67;100.00
11413;BME280;5762;43.256;26.960;2024-03-02T10:11:30;100156.07;;;12.62;100.00
11413;BME280;5762;43.256;26.960;2024-03-02T10:14:08;100161.91;;;12.69;100.00
11413;BME280;5762;43.256;26.960;2024-03-02T10:16:41;100156.73;;;12.70;100.00
11413;BME280;5762;43.256;26.960;2024-03-02T10:21:55;100163.42;;;12.75;100.00
11413;BME280;5762;43.256;26.960;2024-03-02T10:24:24;100162.72;;;12.70;100.00
11413;BME280;5762;43.256;26.960;2024-03-02T10:26:52;100170.04;;;12.83;100.00
11413;BME280;5762;43.256;26.960;2024-03-02T10:29:22;100170.04;;;12.97;100.00
11413;BME280;5762;43.256;26.960;2024-03-02T10:31:50;100170.44;;;13.04;100.00
11413;BME280;5762;43.256;26.960;2024-03-02T10:34:18;100157.97;;;13.03;100.00
11413;BME280;5762;43.256;26.960;2024-03-02T10:36:47;100160.70;;;13.17;100.00
11413;BME280;5762;43.256;26.960;2024-03-02T10:39:15;100153.69;;;12.99;100.00
11413;BME280;5762;43.256;26.960;2024-03-02T10:41:45;100150.37;;;13.02;100.00
11413;BME280;5762;43.256;26.960;2024-03-02T10:44:15;100144.12;;;13.02;100.00
11413;BME280;5762;43.256;26.960;2024-03-02T10:46:43;100140.43;;;13.23;100.00
11413;BME280;5762;43.256;26.960;2024-03-02T10:49:13;100132.47;;;13.26;100.00
11413;BME280;5762;43.256;26.960;2024-03-02T10:51:41;100123.90;;;13.33;100.00
11413;BME280;5762;43.256;26.960;2024-03-02T10:54:09;100118.79;;;13.43;100.00
11413;BME280;5762;43.256;26.960;2024-03-02T10:56:41;100111.74;;;13.41;100.00
11413;BME280;5762;43.256;26.960;2024-03-02T11:01:46;100106.94;;;13.50;100.00
11413;BME280;5762;43.256;26.960;2024-03-02T11:04:18;100089.48;;;13.73;100.00
11413;BME280;5762;43.256;26.960;2024-03-02T11:06:47;100080.34;;;13.80;100.00
11413;BME280;5762;43.256;26.960;2024-03-02T11:09:14;100078.69;;;13.90;100.00
11413;BME280;5762;43.256;26.960;2024-03-02T11:11:44;100054.45;;;13.91;100.00
11413;BME280;5762;43.256;26.960;2024-03-02T11:14:15;100043.99;;;13.96;100.00
11413;BME280;5762;43.256;26.960;2024-03-02T11:16:43;100050.30;;;13.74;100.00
11413;BME280;5762;43.256;26.960;2024-03-02T11:19:13;100045.84;;;13.67;100.00
11413;BME280;5762;43.256;26.960;2024-03-02T11:21:41;100048.00;;;13.79;100.00
11413;BME280;5762;43.256;26.960;2024-03-02T11:26:52;100042.34;;;14.17;100.00
11413;BME280;5762;43.256;26.960;2024-03-02T11:32:22;100014.84;;;14.07;100.00
11413;BME280;5762;43.256;26.960;2024-03-02T11:34:48;100022.69;;;14.09;100.00
11413;BME280;5762;43.256;26.960;2024-03-02T11:37:17;100019.94;;;14.20;100.00
11413;BME280;5762;43.256;26.960;2024-03-02T11:39:48;100011.55;;;14.36;100.00
11413;BME280;5762;43.256;26.960;2024-03-02T11:42:16;99972.53;;;14.30;100.00
11413;BME280;5762;43.256;26.960;2024-03-02T11:44:46;99957.03;;;14.39;100.00
11413;BME280;5762;43.256;26.960;2024-03-02T11:47:15;99925.23;;;14.37;100.00
11413;BME280;5762;43.256;26.960;2024-03-02T11:49:50;99900.16;;;14.37;100.00
11413;BME280;5762;43.256;26.960;2024-03-02T11:52:19;99873.03;;;14.69;100.00
11413;BME280;5762;43.256;26.960;2024-03-02T11:54:49;99787.61;;;14.74;100.00
11413;BME280;5762;43.256;26.960;2024-03-02T11:57:18;99580.66;;;14.71;100.00
11413;BME280;5762;43.256;26.960;2024-03-02T11:59:48;99429.27;;;15.03;100.00
11413;BME280;5762;43.256;26.960;2024-03-02T12:02:19;99341.27;;;15.03;100.00
11413;BME280;5762;43.256;26.960;2024-03-02T12:04:48;99277.43;;;14.98;100.00
11413;BME280;5762;43.256;26.960;2024-03-02T12:07:21;99254.26;;;14.80;100.00
11413;BME280;5762;43.256;26.960;2024-03-02T12:09:47;99232.69;;;14.93;100.00
11413;BME280;5762;43.256;26.960;2024-03-02T12:12:15;99224.99;;;15.13;100.00
11413;BME280;5762;43.256;26.960;2024-03-02T12:14:53;99227.72;;;15.13;100.00
11413;BME280;5762;43.256;26.960;2024-03-02T12:17:22;99223.63;;;15.07;100.00
11413;BME280;5762;43.256;26.960;2024-03-02T12:19:51;99222.16;;;15.16;100.00
11413;BME280;5762;43.256;26.960;2024-03-02T12:22:19;99231.78;;;15.43;100.00
11413;BME280;5762;43.256;26.960;2024-03-02T12:24:49;99224.74;;;15.30;100.00
11413;BME280;5762;43.256;26.960;2024-03-02T12:27:17;99226.33;;;15.25;100.00
11413;BME280;5762;43.256;26.960;2024-03-02T12:29:45;99225.68;;;15.22;100.00
11413;BME280;5762;43.256;26.960;2024-03-02T12:32:13;99226.78;;;15.39;100.00
11413;BME280;5762;43.256;26.960;2024-03-02T12:34:46;99224.74;;;15.36;100.00
11413;BME280;5762;43.256;26.960;2024-03-02T12:37:12;99228.17;;;15.58;100.00
11413;BME280;5762;43.256;26.960;2024-03-02T12:39:44;99226.89;;;15.61;100.00
11413;BME280;5762;43.256;26.960;2024-03-02T12:42:10;99229.53;;;15.58;100.00
11413;BME280;5762;43.256;26.960;2024-03-02T12:44:39;99226.33;;;15.43;100.00
11413;BME280;5762;43.256;26.960;2024-03-02T12:47:07;99226.32;;;15.62;100.00
11413;BME280;5762;43.256;26.960;2024-03-02T12:49:35;99233.38;;;15.32;100.00
11413;BME280;5762;43.256;26.960;2024-03-02T12:52:04;99226.81;;;15.15;100.00
11413;BME280;5762;43.256;26.960;2024-03-02T12:54:32;99233.49;;;15.36;100.00
11413;BME280;5762;43.256;26.960;2024-03-02T12:57:00;99228.16;;;15.33;100.00
11413;BME280;5762;43.256;26.960;2024-03-02T12:59:30;99232.50;;;15.22;100.00
11413;BME280;5762;43.256;26.960;2024-03-02T13:01:58;99227.70;;;15.43;100.00
11413;BME280;5762;43.256;26.960;2024-03-02T13:04:27;99229.63;;;15.49;100.00
11413;BME280;5762;43.256;26.960;2024-03-02T13:06:56;99229.74;;;15.34;100.00
11413;BME280;5762;43.256;26.960;2024-03-02T13:09:25;99236.24;;;15.24;100.00